Time;durP1;ratioP1;P1;durP2;ratioP2;P2;SDS_P1;SDS_P2;PMS_P1;PMS_P2;Temp;Humidity;BMP_temperature;BMP_pressure;BME280_temperature;BME280_humidity;BME280_pressure;Samples;Min_cycle;Max_cycle;Signal;HPM_P1;HPM_P2
2022/07/23 00:00:32;;;;;;;6.73;1.73;;;20.90;61.60;;;23.51;46.49;101776.50;5113258;28;20328;-61
2022/07/23 00:03:05;;;;;;;5.37;2.07;;;20.80;61.90;;;23.46;46.83;101779.91;5113777;28;20571;-60
2022/07/23 00:05:33;;;;;;;2.60;1.70;;;20.80;62.10;;;23.42;46.86;101769.88;5113599;28;20223;-61
2022/07/23 00:08:01;;;;;;;3.77;1.80;;;20.80;62.20;;;23.40;47.02;101774.66;5113436;28;20191;-59
2022/07/23 00:10:29;;;;;;;4.20;1.90;;;20.70;62.50;;;23.39;46.98;101779.22;5113115;28;20552;-60
2022/07/23 00:12:57;;;;;;;2.00;1.50;;;20.70;62.30;;;23.37;46.89;101781.31;5112651;28;20211;-60
2022/07/23 00:15:25;;;;;;;2.40;1.47;;;20.70;62.00;;;23.33;46.97;101773.91;5113012;28;20686;-60
2022/07/23 00:17:52;;;;;;;2.83;1.83;;;20.70;62.10;;;23.27;46.91;101772.97;5113458;28;20212;-61
2022/07/23 00:20:20;;;;;;;7.23;2.20;;;20.60;62.20;;;23.21;47.07;101759.66;5113121;28;20191;-61
2022/07/23 00:22:48;;;;;;;4.40;2.07;;;20.60;62.40;;;23.15;47.08;101774.03;5113120;28;20207;-60
2022/07/23 00:25:16;;;;;;;3.30;2.10;;;20.50;62.60;;;23.09;47.43;101769.56;5106618;28;20649;-58
2022/07/23 00:28:02;;;;;;;1.83;1.57;;;20.40;62.90;;;23.02;47.44;101769.69;5093256;28;20202;-59
2022/07/23 00:30:31;;;;;;;3.70;1.67;;;20.40;63.10;;;23.00;47.81;101771.78;5093526;28;20185;-59
2022/07/23 00:33:02;;;;;;;2.93;1.47;;;20.40;63.30;;;23.03;47.94;101770.50;5091710;28;20219;-62
2022/07/23 00:35:32;;;;;;;2.43;1.33;;;20.40;63.60;;;23.04;47.84;101772.97;5094605;28;20598;-60
2022/07/23 00:38:01;;;;;;;2.37;1.73;;;20.40;63.40;;;23.09;47.94;101774.94;5094321;28;20215;-60
2022/07/23 00:40:30;;;;;;;3.77;1.77;;;20.40;63.70;;;23.13;47.20;101776.13;5097926;28;20192;-59
2022/07/23 00:42:59;;;;;;;3.60;1.60;;;20.40;63.50;;;23.16;47.78;101775.66;5097054;28;20215;-58
2022/07/23 00:45:28;;;;;;;3.23;1.67;;;20.50;63.60;;;23.20;47.47;101776.84;5096795;28;20191;-58
2022/07/23 00:47:56;;;;;;;2.03;1.50;;;20.50;63.20;;;23.24;47.31;101769.94;5096933;28;20188;-60
2022/07/23 00:50:24;;;;;;;2.53;1.60;;;20.60;63.10;;;23.27;47.37;101772.97;5096587;28;20568;-59
2022/07/23 00:52:53;;;;;;;3.33;1.80;;;20.60;62.90;;;23.31;47.13;101767.97;5099936;28;20218;-59
2022/07/23 00:55:20;;;;;;;2.60;1.90;;;20.60;63.50;;;23.36;47.35;101768.13;5117286;28;20186;-60
2022/07/23 00:57:50;;;;;;;5.53;1.93;;;20.70;63.00;;;23.41;47.09;101773.63;5117372;28;20208;-59
2022/07/23 01:00:18;;;;;;;2.10;1.47;;;20.80;62.80;;;23.42;47.10;101769.88;5116932;28;20192;-59
2022/07/23 01:02:46;;;;;;;4.07;1.73;;;20.80;62.60;;;23.43;47.00;101766.13;5116575;28;20580;-59
2022/07/23 01:05:15;;;;;;;3.57;1.80;;;20.80;62.40;;;23.43;46.95;101766.13;5116803;28;20271;-59
2022/07/23 01:07:43;;;;;;;4.07;2.13;;;20.80;62.30;;;23.41;47.07;101762.88;5105610;28;20192;-60
2022/07/23 01:12:57;;;;;;;2.50;1.93;;;20.80;62.30;;;23.32;47.06;101754.28;5096519;28;20212;-60
2022/07/23 01:15:24;;;;;;;3.00;1.67;;;20.70;62.50;;;23.28;47.30;101752.31;5096651;28;20200;-60
2022/07/23 01:17:53;;;;;;;2.83;1.63;;;20.60;62.90;;;23.25;47.48;101750.09;5096439;28;20208;-60
2022/07/23 01:20:21;;;;;;;5.07;2.37;;;20.60;63.30;;;23.23;47.73;101744.13;5096077;28;20200;-58
2022/07/23 01:22:52;;;;;;;4.73;2.30;;;20.60;63.60;;;23.23;47.78;101738.75;5080121;28;20217;-60
2022/07/23 01:25:20;;;;;;;6.10;2.33;;;20.60;63.70;;;23.25;47.78;101739.34;5095838;28;20229;-61
2022/07/23 01:27:48;;;;;;;4.20;2.03;;;20.60;63.70;;;23.26;47.69;101730.22;5095625;28;20657;-60
2022/07/23 01:30:15;;;;;;;4.50;2.37;;;20.60;63.70;;;23.28;47.67;101741.56;5096908;28;20192;-60
2022/07/23 01:32:43;;;;;;;4.47;2.23;;;20.60;63.60;;;23.23;47.60;101744.13;5095309;28;20223;-58
2022/07/23 01:35:11;;;;;;;4.77;2.50;;;20.50;63.40;;;23.17;47.91;101739.69;5095868;28;20192;-59
2022/07/23 01:37:38;;;;;;;3.83;2.20;;;20.50;63.70;;;23.12;47.71;101753.81;5096028;28;20208;-61
2022/07/23 01:40:08;;;;;;;3.67;2.07;;;20.40;63.90;;;23.07;48.02;101750.19;5095784;28;20545;-59
2022/07/23 01:42:36;;;;;;;3.30;2.10;;;20.40;64.20;;;23.01;48.25;101735.81;5094738;28;20683;-60
2022/07/23 01:45:05;;;;;;;3.40;2.07;;;20.30;64.70;;;23.01;48.40;101737.69;5110307;28;20196;-58
2022/07/23 01:47:33;;;;;;;3.20;2.60;;;20.30;65.00;;;22.99;48.47;101731.75;5116303;28;20544;-59
2022/07/23 01:50:00;;;;;;;3.30;2.70;;;20.20;65.20;;;22.98;48.80;101735.47;5115218;28;20180;-60
2022/07/23 01:52:28;;;;;;;4.07;2.37;;;20.20;65.40;;;22.97;48.79;101739.19;5115156;28;20215;-60
2022/07/23 01:54:55;;;;;;;5.30;2.63;;;20.20;65.70;;;22.98;48.83;101746.22;5115910;28;20606;-58
2022/07/23 01:57:24;;;;;;;5.53;2.20;;;20.20;65.80;;;22.98;48.80;101743.53;5115005;28;20558;-59
2022/07/23 01:59:51;;;;;;;3.13;1.97;;;20.20;66.00;;;22.97;48.83;101739.19;5095478;28;20218;-60
2022/07/23 02:02:18;;;;;;;3.73;2.17;;;20.20;65.90;;;22.95;48.78;101726.00;5094817;28;20204;-59
2022/07/23 02:04:46;;;;;;;3.17;2.20;;;20.10;66.00;;;22.91;48.88;101727.53;5095454;28;20193;-58
2022/07/23 02:07:13;;;;;;;3.97;2.07;;;20.10;65.80;;;22.89;48.95;101732.31;5095381;28;20192;-57
2022/07/23 02:09:40;;;;;;;5.43;2.27;;;20.10;66.00;;;22.87;49.18;101721.78;5095242;28;20521;-60
2022/07/23 02:12:08;;;;;;;2.93;1.63;;;20.10;66.20;;;22.88;49.11;101712.69;5101992;28;20580;-61
2022/07/23 02:14:37;;;;;;;5.53;2.20;;;20.10;66.30;;;22.92;49.07;101712.25;5115393;28;20184;-61
2022/07/23 02:17:05;;;;;;;4.43;2.20;;;20.10;66.30;;;22.90;49.17;101705.22;5115352;28;20211;-60
2022/07/23 02:19:32;;;;;;;2.40;1.80;;;20.10;66.40;;;22.95;48.93;101704.50;5115293;28;20684;-60
2022/07/23 02:22:00;;;;;;;2.47;1.80;;;20.10;66.30;;;22.99;49.00;101715.63;5114793;28;20215;-60
2022/07/23 02:24:27;;;;;;;4.80;2.50;;;20.10;66.10;;;23.01;48.98;101714.31;5115281;27;20192;-60
2022/07/23 02:26:55;;;;;;;6.83;2.00;;;20.20;66.10;;;22.99;48.81;101710.25;5100606;28;20197;-59
2022/07/23 02:29:22;;;;;;;4.57;2.20;;;20.20;66.10;;;22.95;48.86;101704.50;5095013;28;20189;-60
2022/07/23 02:31:51;;;;;;;4.53;2.47;;;20.10;66.00;;;22.94;49.19;101697.50;5094256;28;20260;-60
2022/07/23 02:34:18;;;;;;;2.73;2.00;;;20.10;66.40;;;22.95;49.28;101695.63;5094143;28;20184;-61
2022/07/23 02:36:45;;;;;;;3.23;1.97;;;20.10;66.50;;;22.95;49.37;101692.94;5094943;28;20646;-60
2022/07/23 02:39:14;;;;;;;4.60;2.10;;;20.10;66.60;;;22.95;49.42;101688.41;5094886;28;20216;-62
2022/07/23 02:41:41;;;;;;;3.03;1.80;;;20.10;66.80;;;22.99;49.24;101688.78;5114490;28;20214;-60
2022/07/23 02:44:08;;;;;;;2.77;2.20;;;20.20;66.90;;;23.04;49.18;101683.50;5114996;28;20195;-61
2022/07/23 02:46:36;;;;;;;7.23;2.20;;;20.20;66.70;;;23.07;49.19;101691.09;5114912;28;20564;-60
2022/07/23 02:49:04;;;;;;;2.83;2.20;;;20.20;66.50;;;23.11;49.13;101686.88;5114883;28;20544;-60
2022/07/23 02:51:33;;;;;;;3.67;2.00;;;20.30;66.40;;;23.13;48.81;101684.81;5114198;28;20676;-60
2022/07/23 02:54:00;;;;;;;7.00;2.03;;;20.30;67.00;;;23.13;49.02;101690.16;5107685;28;20188;-60
2022/07/23 02:56:28;;;;;;;7.40;2.50;;;20.30;66.10;;;23.12;48.95;101693.91;5094253;28;20191;-60
2022/07/23 02:58:55;;;;;;;6.53;2.63;;;20.30;66.00;;;23.08;49.00;101693.56;5094176;28;20216;-60
2022/07/23 03:01:22;;;;;;;4.40;2.70;;;20.30;66.10;;;23.08;49.16;101695.44;5093472;28;20212;-60
2022/07/23 03:03:50;;;;;;;5.37;2.40;;;20.30;66.20;;;23.06;48.81;101692.16;5094015;28;20195;-60
2022/07/23 03:06:19;;;;;;;6.73;2.83;;;20.30;66.10;;;23.02;48.62;101699.03;5094083;28;20218;-60
2022/07/23 03:08:47;;;;;;;3.30;3.00;;;20.30;66.10;;;22.96;48.92;101697.28;5107907;28;20187;-61
2022/07/23 03:11:14;;;;;;;6.03;2.43;;;20.20;66.00;;;22.89;49.26;101684.78;5113681;28;20204;-61
2022/07/23 03:13:43;;;;;;;7.47;3.20;;;20.10;66.10;;;22.84;49.39;101691.91;5114117;28;20192;-61
2022/07/23 03:16:11;;;;;;;3.87;2.67;;;20.10;66.90;;;22.79;49.32;101689.09;5114348;28;20199;-60
2022/07/23 03:18:38;;;;;;;6.07;2.97;;;20.00;66.20;;;22.74;48.99;101680.91;5114486;28;20204;-61
2022/07/23 03:21:07;;;;;;;3.20;2.50;;;20.00;66.10;;;22.67;48.91;101672.97;5113193;28;20205;-60
2022/07/23 03:23:36;;;;;;;3.57;3.00;;;19.90;65.90;;;22.63;49.71;101679.81;5113207;28;20593;-60
2022/07/23 03:26:04;;;;;;;5.03;2.40;;;19.90;66.40;;;22.59;49.73;101678.63;5114141;28;20194;-60
2022/07/23 03:28:32;;;;;;;3.23;2.57;;;19.80;66.40;;;22.58;49.20;101676.19;5114245;28;20191;-61
2022/07/23 03:30:59;;;;;;;3.57;2.80;;;19.80;66.20;;;22.53;49.29;101674.19;5114052;28;20192;-61
2022/07/23 03:33:26;;;;;;;4.20;2.50;;;19.70;66.00;;;22.48;49.57;101684.81;5114160;28;20196;-61
2022/07/23 03:35:54;;;;;;;3.10;2.57;;;19.70;66.40;;;22.45;49.58;101682.56;5106404;28;20204;-60
2022/07/23 03:38:22;;;;;;;4.40;2.53;;;19.60;66.60;;;22.44;49.75;101686.28;5093200;28;20562;-59
2022/07/23 03:40:51;;;;;;;3.03;2.33;;;19.60;66.80;;;22.43;49.62;101681.97;5093205;28;20220;-61
2022/07/23 03:43:19;;;;;;;4.83;2.30;;;19.70;66.90;;;22.45;49.65;101685.25;5093847;28;20188;-60
2022/07/23 03:45:46;;;;;;;6.73;2.67;;;19.70;66.80;;;22.44;49.93;101688.97;5094224;28;20201;-59
2022/07/23 03:48:16;;;;;;;4.10;2.27;;;19.70;66.70;;;22.42;49.63;101688.38;5093745;28;20263;-60
2022/07/23 03:50:43;;;;;;;4.33;2.77;;;19.60;67.30;;;22.37;49.58;101690.94;5107933;28;20217;-60
2022/07/23 03:53:10;;;;;;;8.93;2.40;;;19.60;66.60;;;22.34;49.69;101688.72;5113955;28;20218;-59
2022/07/23 03:55:38;;;;;;;3.47;2.20;;;19.60;67.60;;;22.33;49.87;101697.81;5113857;28;20187;-60
2022/07/23 03:58:06;;;;;;;4.50;2.20;;;19.60;66.70;;;22.30;49.82;101690.22;5113614;28;20188;-60
2022/07/23 04:00:34;;;;;;;4.93;2.10;;;19.60;66.90;;;22.31;50.17;101691.03;5113286;28;20198;-58
2022/07/23 04:03:01;;;;;;;3.33;2.30;;;19.60;67.00;;;22.29;49.94;101691.28;5102953;28;20212;-59
2022/07/23 04:05:29;;;;;;;6.33;2.17;;;19.50;66.80;;;22.25;49.66;101684.72;5092496;28;20622;-60
2022/07/23 04:07:56;;;;;;;3.73;2.40;;;19.50;67.10;;;22.21;50.22;101694.25;5093632;28;20188;-60
2022/07/23 04:10:23;;;;;;;2.80;2.13;;;19.50;67.10;;;22.17;50.00;101690.41;5093380;28;20184;-60
2022/07/23 04:12:51;;;;;;;4.20;2.30;;;19.40;67.20;;;22.12;50.15;101692.94;5093360;28;20208;-59
2022/07/23 04:15:20;;;;;;;3.67;2.20;;;19.40;67.00;;;22.05;49.87;101694.91;5097204;28;20188;-59
2022/07/23 04:17:47;;;;;;;3.60;2.10;;;19.40;67.20;;;22.01;50.28;101693.72;5114760;28;20199;-60
2022/07/23 04:20:14;;;;;;;4.87;2.30;;;19.30;67.20;;;21.95;50.15;101694.63;5117833;28;20226;-60
2022/07/23 04:22:41;;;;;;;4.00;2.30;;;19.20;67.50;;;21.92;50.48;101695.88;5117726;28;20218;-59
2022/07/23 04:25:09;;;;;;;3.33;2.17;;;19.20;67.80;;;21.92;50.23;101703.09;5117884;28;20552;-61
2022/07/23 04:27:36;;;;;;;4.63;2.80;;;19.20;67.90;;;21.87;50.39;101705.66;5117643;28;20267;-60
2022/07/23 04:30:05;;;;;;;3.73;2.40;;;19.20;68.10;;;21.82;50.40;101705.50;5114160;28;20216;-60
2022/07/23 04:32:34;;;;;;;4.77;2.77;;;19.10;68.20;;;21.75;50.69;101708.22;5096773;28;20224;-59
2022/07/23 04:35:02;;;;;;;4.37;2.63;;;19.00;68.30;;;21.71;51.11;101704.38;5097606;28;20211;-59
2022/07/23 04:37:29;;;;;;;5.53;3.00;;;19.00;68.50;;;21.68;50.97;101706.69;5097589;28;20191;-60
2022/07/23 04:39:56;;;;;;;2.93;2.67;;;19.00;68.80;;;21.65;51.38;101712.50;5096883;28;20219;-60
2022/07/23 04:42:24;;;;;;;4.63;3.00;;;18.90;69.10;;;21.62;51.54;101708.38;5096699;28;20220;-60
2022/07/23 04:44:51;;;;;;;5.23;2.60;;;18.90;69.30;;;21.61;51.46;101711.31;5097643;28;20188;-60
2022/07/23 04:47:19;;;;;;;6.30;3.23;;;18.90;69.30;;;21.59;51.94;101717.69;5097717;28;20638;-60
2022/07/23 04:49:50;;;;;;;3.47;2.87;;;18.80;69.60;;;21.57;51.78;101718.94;5097227;28;20193;-60
2022/07/23 04:52:17;;;;;;;4.17;2.60;;;18.80;70.10;;;21.57;51.90;101706.38;5096835;28;20208;-59
2022/07/23 04:54:44;;;;;;;7.27;3.10;;;18.80;70.10;;;21.59;51.93;101709.66;5096657;28;20202;-60
2022/07/23 04:57:12;;;;;;;5.37;2.63;;;18.80;70.20;;;21.58;52.16;101708.00;5096637;28;20238;-60
2022/07/23 04:59:39;;;;;;;6.77;2.83;;;18.80;70.30;;;21.58;51.87;101712.56;5096485;28;20236;-59
2022/07/23 05:02:07;;;;;;;3.20;2.50;;;18.80;70.30;;;21.57;52.26;101710.91;5096466;28;20220;-60
2022/07/23 05:04:34;;;;;;;6.77;3.10;;;18.80;70.30;;;21.58;52.32;101720.59;5113246;28;20620;-60
2022/07/23 05:07:03;;;;;;;2.97;2.70;;;18.80;70.50;;;21.58;52.28;101718.72;5116611;28;20237;-58
2022/07/23 05:09:31;;;;;;;4.20;3.27;;;18.80;70.50;;;21.61;52.34;101727.38;5116441;28;20180;-60
2022/07/23 05:11:58;;;;;;;4.13;2.97;;;18.80;70.40;;;21.59;52.27;101723.06;5116046;28;20212;-60
2022/07/23 05:14:26;;;;;;;5.50;3.20;;;18.80;70.30;;;21.59;52.58;101714.19;5115923;28;20192;-57
2022/07/23 05:16:53;;;;;;;4.13;2.97;;;18.80;70.60;;;21.64;52.42;101724.22;5115682;28;20200;-58
2022/07/23 05:19:21;;;;;;;3.80;2.90;;;18.80;70.50;;;21.65;52.03;101717.84;5113982;28;20219;-60
2022/07/23 05:21:51;;;;;;;4.43;2.80;;;18.80;70.30;;;21.65;52.09;101726.72;5096047;28;20228;-59
2022/07/23 05:24:20;;;;;;;4.77;2.90;;;18.80;70.20;;;21.68;52.30;101728.13;5096699;28;20233;-59
2022/07/23 05:26:48;;;;;;;4.63;2.60;;;18.90;70.10;;;21.65;51.45;101723.22;5096019;28;20227;-60
2022/07/23 05:29:15;;;;;;;4.47;2.70;;;18.80;69.50;;;21.61;52.03;101727.38;5096132;28;20638;-60
2022/07/23 05:31:43;;;;;;;4.97;2.63;;;18.80;69.50;;;21.62;51.99;101729.00;5096191;27;20215;-60
2022/07/23 05:34:11;;;;;;;4.80;2.60;;;18.90;69.70;;;21.66;52.11;101720.28;5096023;28;20209;-60
2022/07/23 05:36:44;;;;;;;6.47;2.37;;;18.80;69.80;;;21.69;51.42;101713.66;5095843;28;20200;-61
2022/07/23 05:39:11;;;;;;;4.27;2.60;;;18.90;69.70;;;21.74;51.25;101721.84;5095617;28;20204;-60
2022/07/23 05:41:40;;;;;;;5.50;3.67;;;18.90;70.30;;;21.78;51.21;101723.03;5095176;28;20217;-61
2022/07/23 05:44:09;;;;;;;3.80;2.53;;;18.90;69.50;;;21.81;51.70;101730.66;5103177;28;20180;-60
2022/07/23 05:46:36;;;;;;;4.30;2.53;;;19.00;70.30;;;21.83;51.34;101736.59;5116491;28;20192;-60
2022/07/23 05:49:04;;;;;;;5.27;2.50;;;19.00;69.30;;;21.88;51.44;101744.81;5115803;28;20191;-61
2022/07/23 05:51:32;;;;;;;3.70;2.30;;;19.00;69.40;;;21.94;50.75;101733.22;5115653;28;20232;-60
2022/07/23 05:53:59;;;;;;;2.70;2.50;;;19.00;69.10;;;22.01;50.91;101739.31;5115919;27;20184;-61
2022/07/23 05:56:27;;;;;;;3.30;2.60;;;19.10;69.10;;;22.10;50.80;101738.78;5115885;28;20192;-59
2022/07/23 05:58:55;;;;;;;4.83;2.90;;;19.20;68.90;;;22.25;50.67;101744.56;5115843;28;20188;-59
2022/07/23 06:01:23;;;;;;;4.40;2.30;;;19.20;68.50;;;22.40;49.94;101741.47;5113485;28;20214;-59
2022/07/23 06:03:50;;;;;;;2.37;2.17;;;19.30;68.40;;;22.56;49.66;101743.50;5114653;28;20192;-59
2022/07/23 06:06:18;;;;;;;4.17;2.30;;;19.40;68.10;;;22.65;49.29;101742.19;5115525;28;20540;-60
2022/07/23 06:08:45;;;;;;;3.23;2.10;;;19.50;67.50;;;22.74;48.76;101742.66;5115556;28;20691;-59
2022/07/23 06:11:13;;;;;;;2.20;1.73;;;19.60;67.40;;;22.85;48.80;101747.22;5115192;28;20218;-60
2022/07/23 06:13:40;;;;;;;7.03;1.93;;;19.70;67.20;;;22.99;48.56;101758.59;5115515;28;20183;-59
2022/07/23 06:16:09;;;;;;;2.83;2.10;;;19.80;66.80;;;23.10;48.25;101761.31;5110626;28;20181;-59
2022/07/23 06:18:36;;;;;;;3.27;2.07;;;19.90;66.50;;;23.18;47.93;101768.19;5095622;28;20192;-60
2022/07/23 06:21:04;;;;;;;4.30;1.70;;;20.00;66.20;;;23.23;47.86;101760.25;5094481;28;20220;-62
2022/07/23 06:23:51;;;;;;;2.17;1.60;;;20.10;65.70;;;23.22;47.46;101759.44;5095133;28;20196;-59
2022/07/23 06:26:19;;;;;;;4.97;2.30;;;20.10;64.90;;;23.22;47.52;101764.81;5095223;28;20212;-60
2022/07/23 06:28:46;;;;;;;2.40;2.20;;;20.20;64.90;;;23.24;47.47;101761.88;5094696;28;20223;-61
2022/07/23 06:31:15;;;;;;;3.40;1.80;;;20.20;64.90;;;23.29;47.53;101768.22;5094329;28;20575;-61
2022/07/23 06:33:43;;;;;;;6.07;2.17;;;20.20;64.90;;;23.32;47.52;101766.94;5095781;28;20192;-61
2022/07/23 06:36:11;;;;;;;2.87;2.10;;;20.30;65.00;;;23.31;47.45;101762.59;5094372;28;20184;-60
2022/07/23 06:38:38;;;;;;;2.37;1.60;;;20.30;64.80;;;23.30;47.62;101766.31;5094683;28;20189;-61
2022/07/23 06:41:05;;;;;;;9.90;2.47;;;20.30;64.80;;;23.29;47.35;101770.91;5094342;28;20227;-61
2022/07/23 06:43:33;;;;;;;4.20;2.00;;;20.30;64.60;;;23.26;47.48;101776.72;5094963;28;20189;-60
2022/07/23 06:46:00;;;;;;;4.20;1.73;;;20.30;64.30;;;23.22;47.16;101772.06;5094340;28;20216;-60
2022/07/23 06:48:29;;;;;;;2.63;2.03;;;20.30;63.90;;;23.16;47.45;101776.47;5093153;28;20211;-60
2022/07/23 06:50:56;;;;;;;5.37;2.47;;;20.30;64.20;;;23.16;47.32;101786.41;5094267;28;20215;-61
2022/07/23 06:53:24;;;;;;;2.63;1.70;;;20.30;64.20;;;23.14;47.45;101778.59;5094987;28;20188;-59
2022/07/23 06:55:51;;;;;;;4.60;1.87;;;20.30;64.10;;;23.17;47.39;101777.31;5094351;28;20193;-60
2022/07/23 06:58:19;;;;;;;2.87;1.77;;;20.30;64.10;;;23.20;47.22;101771.47;5094275;28;20195;-60
2022/07/23 07:00:46;;;;;;;5.40;2.20;;;20.30;64.10;;;23.33;47.23;101777.44;5093848;28;20216;-60
2022/07/23 07:03:16;;;;;;;2.57;1.70;;;20.30;64.30;;;23.46;46.90;101771.06;5094721;28;20250;-60
2022/07/23 07:05:45;;;;;;;2.63;1.70;;;20.40;63.90;;;23.57;46.52;101772.91;5098410;28;20188;-60
2022/07/23 07:08:12;;;;;;;3.67;2.47;;;20.50;63.30;;;23.62;45.97;101780.25;5114919;28;20552;-59
2022/07/23 07:10:40;;;;;;;3.13;1.53;;;20.50;62.50;;;23.60;45.47;101775.13;5114309;28;20538;-60
2022/07/23 07:13:07;;;;;;;3.70;1.70;;;20.60;61.30;;;23.54;45.22;101774.19;5114670;28;20239;-60
2022/07/23 07:15:35;;;;;;;2.80;1.37;;;20.60;60.80;;;23.50;44.96;101775.72;5114408;28;20187;-60
2022/07/23 07:18:03;;;;;;;2.00;1.33;;;20.60;60.40;;;23.53;44.91;101771.75;5114291;28;20521;-62
2022/07/23 07:20:30;;;;;;;2.23;1.40;;;20.60;60.60;;;23.58;45.18;101768.34;5112678;28;20226;-61
2022/07/23 07:22:59;;;;;;;2.17;1.57;;;20.60;60.90;;;23.71;44.68;101766.22;5103161;28;20574;-59
2022/07/23 07:25:26;;;;;;;1.47;1.30;;;20.70;61.00;;;23.83;44.68;101764.34;5093814;28;20200;-61
2022/07/23 07:27:54;;;;;;;1.97;1.50;;;20.80;61.30;;;23.99;44.53;101768.97;5093090;28;20279;-59
2022/07/23 07:30:22;;;;;;;2.73;1.70;;;20.90;60.60;;;24.17;44.25;101768.03;5093288;28;20211;-65
2022/07/23 07:32:49;;;;;;;2.27;1.47;;;21.00;60.10;;;24.30;43.27;101772.31;5093852;28;20577;-60
2022/07/23 07:35:23;;;;;;;1.60;1.50;;;21.10;59.50;;;24.42;43.48;101767.69;5093780;28;20526;-61
2022/07/23 07:37:51;;;;;;;3.27;1.97;;;21.20;59.30;;;24.51;42.65;101767.06;5093429;28;20196;-60
2022/07/23 07:40:20;;;;;;;2.37;1.60;;;21.30;58.70;;;24.58;42.65;101764.25;5110079;28;20219;-61
2022/07/23 07:42:48;;;;;;;2.03;1.40;;;21.40;58.40;;;24.69;42.17;101768.75;5113534;28;20207;-59
2022/07/23 07:45:17;;;;;;;3.13;1.23;;;21.40;57.90;;;24.75;41.57;101775.84;5113685;28;20556;-61
2022/07/23 07:47:44;;;;;;;1.23;1.07;;;21.50;57.40;;;24.73;41.37;101770.72;5113011;28;20266;-60
2022/07/23 07:50:12;;;;;;;2.70;1.87;;;21.60;56.80;;;24.71;42.03;101775.53;5113309;28;20184;-60
2022/07/23 07:52:40;;;;;;;3.53;2.20;;;21.60;57.10;;;24.75;41.90;101770.47;5112682;28;20538;-61
2022/07/23 07:55:09;;;;;;;2.43;2.13;;;21.60;57.60;;;24.80;42.08;101774.09;5111107;28;20184;-61
2022/07/23 07:57:39;;;;;;;2.63;1.70;;;21.60;57.70;;;24.90;42.39;101773.47;5113745;28;20188;-60
2022/07/23 08:00:10;;;;;;;3.33;1.63;;;21.70;58.00;;;25.02;41.83;101786.84;5113604;28;20223;-59
2022/07/23 08:02:43;;;;;;;3.13;1.40;;;21.80;58.20;;;25.15;41.59;101775.75;5111910;28;20288;-62
2022/07/23 08:05:11;;;;;;;2.07;1.50;;;21.80;58.00;;;25.27;41.90;101785.38;5113672;28;20282;-60
2022/07/23 08:07:39;;;;;;;3.13;1.50;;;21.90;57.70;;;25.37;41.88;101785.53;5113188;28;20563;-60
2022/07/23 08:10:09;;;;;;;1.83;1.70;;;22.00;57.70;;;25.43;41.09;101792.66;5112686;28;20195;-60
2022/07/23 08:12:44;;;;;;;2.83;1.60;;;22.00;57.60;;;25.49;40.96;101794.38;5099891;28;20240;-61
2022/07/23 08:15:14;;;;;;;2.60;1.87;;;22.10;57.40;;;25.60;41.05;101797.25;5093336;28;20200;-60
2022/07/23 08:17:42;;;;;;;3.17;2.20;;;22.20;57.60;;;25.67;41.67;101797.88;5092825;28;20586;-59
2022/07/23 08:20:13;;;;;;;3.00;1.93;;;22.30;57.70;;;25.65;41.35;101797.31;5092631;28;20609;-58
2022/07/23 08:22:47;;;;;;;2.30;1.50;;;22.30;57.50;;;25.53;41.22;101800.91;5092346;28;20212;-59
2022/07/23 08:25:15;;;;;;;3.33;1.67;;;22.30;57.20;;;25.40;40.88;101801.22;5092669;28;20192;-60
2022/07/23 08:27:44;;;;;;;1.17;1.03;;;22.30;56.70;;;25.25;41.60;101792.91;5092582;28;20299;-60
2022/07/23 08:30:12;;;;;;;2.70;1.60;;;22.20;56.60;;;25.18;41.83;101803.03;5093083;28;20196;-60
2022/07/23 08:32:55;;;;;;;1.80;1.57;;;22.10;56.70;;;25.18;41.25;101797.63;5092198;28;20231;-59
2022/07/23 08:35:27;;;;;;;2.20;1.63;;;22.10;57.00;;;25.32;41.96;101793.53;5092670;28;20564;-60
2022/07/23 08:37:55;;;;;;;2.63;1.50;;;22.10;57.50;;;25.44;41.56;101799.69;5092595;28;20521;-59
2022/07/23 08:40:24;;;;;;;2.90;1.80;;;22.10;57.60;;;25.48;41.15;101814.31;5091766;28;20223;-59
2022/07/23 08:42:53;;;;;;;3.63;1.73;;;22.20;57.70;;;25.53;41.78;101816.31;5093005;28;20221;-61
2022/07/23 08:45:24;;;;;;;1.90;1.50;;;22.20;57.60;;;25.59;41.65;101814.47;5093625;28;20189;-59
2022/07/23 08:47:55;;;;;;;3.33;1.50;;;22.30;57.50;;;25.58;40.88;101813.66;5092855;28;20196;-61
2022/07/23 08:50:24;;;;;;;5.83;1.50;;;22.30;57.40;;;25.64;40.87;101811.84;5092038;28;20181;-60
2022/07/23 08:52:53;;;;;;;2.67;1.63;;;22.30;57.20;;;25.65;40.68;101817.00;5092128;28;20216;-58
2022/07/23 08:55:22;;;;;;;2.77;1.33;;;22.30;56.90;;;25.55;40.59;101814.97;5091889;28;20192;-61
2022/07/23 08:57:53;;;;;;;1.27;1.10;;;22.30;56.60;;;25.46;40.47;101821.84;5092500;28;20184;-59
2022/07/23 09:00:22;;;;;;;3.70;1.30;;;22.30;56.10;;;25.32;41.04;101817.81;5092262;28;20208;-62
2022/07/23 09:02:51;;;;;;;1.77;1.20;;;22.30;55.90;;;25.18;40.90;101829.97;5096911;28;20208;-59
2022/07/23 09:05:19;;;;;;;1.23;1.13;;;22.20;55.50;;;25.05;40.95;101833.00;5095795;28;20195;-59
2022/07/23 09:08:10;;;;;;;2.17;1.30;;;22.10;55.10;;;24.87;40.83;101819.75;5096195;28;20242;-59
2022/07/23 09:10:51;;;;;;;1.80;1.70;;;22.00;55.30;;;24.81;41.56;101824.22;5096105;28;20189;-61
2022/07/23 09:13:36;;;;;;;2.40;2.03;;;21.90;56.10;;;24.78;41.92;101823.88;5096080;28;20188;-60
2022/07/23 09:16:08;;;;;;;1.70;1.37;;;21.90;56.50;;;24.83;41.71;101826.69;5096225;28;20196;-61
2022/07/23 09:18:40;;;;;;;2.00;1.33;;;21.80;56.50;;;24.99;41.82;101819.66;5097059;28;20193;-61
2022/07/23 09:21:17;;;;;;;2.50;1.77;;;21.90;56.80;;;25.27;40.83;101812.34;5095488;28;20242;-61
2022/07/23 09:23:48;;;;;;;1.27;1.07;;;21.90;57.10;;;25.53;40.02;101811.69;5096225;28;20587;-61
2022/07/23 09:26:35;;;;;;;2.47;1.43;;;22.10;56.00;;;25.66;40.15;101809.72;5095746;28;20184;-60
2022/07/23 09:29:16;;;;;;;1.77;1.00;;;22.20;55.40;;;25.73;39.71;101815.75;5095917;28;20196;-60
2022/07/23 09:31:48;;;;;;;1.40;0.80;;;22.30;54.60;;;25.89;38.66;101818.41;5095288;28;20212;-60
2022/07/23 09:34:20;;;;;;;2.43;1.10;;;22.40;54.40;;;26.19;38.69;101815.34;5096071;28;20199;-61
2022/07/23 09:36:52;;;;;;;1.57;1.10;;;22.60;54.40;;;26.61;37.81;101812.84;5092663;28;20245;-61
2022/07/23 09:39:28;;;;;;;3.43;1.10;;;22.70;53.90;;;26.97;36.96;101816.72;5095764;28;20185;-61
2022/07/23 09:41:57;;;;;;;1.60;1.10;;;22.90;52.80;;;27.30;36.11;101821.88;5095454;28;20235;-60
2022/07/23 09:44:25;;;;;;;0.90;0.80;;;23.20;52.40;;;27.73;35.98;101816.25;5094946;28;20272;-61
2022/07/23 09:47:00;;;;;;;2.30;1.47;;;23.40;52.60;;;28.37;35.13;101826.88;5094960;28;20267;-61
2022/07/23 09:49:29;;;;;;;2.47;1.00;;;23.70;51.90;;;28.79;33.98;101808.56;5095134;28;20199;-61
2022/07/23 09:51:59;;;;;;;1.70;0.80;;;24.10;51.10;;;29.05;33.94;101807.50;5105619;28;20223;-60
2022/07/23 09:54:32;;;;;;;1.20;0.87;;;24.40;50.60;;;29.65;32.65;101811.25;5116083;28;20661;-61
2022/07/23 09:57:04;;;;;;;1.23;1.03;;;24.80;49.30;;;31.19;30.73;101809.97;5115486;28;20198;-60
2022/07/23 09:59:36;;;;;;;1.77;1.60;;;25.20;48.40;;;32.49;29.17;101813.13;5115577;28;20192;-60
2022/07/23 10:02:06;;;;;;;2.43;1.30;;;25.90;46.80;;;33.63;27.34;101809.91;5114794;28;20215;-60
2022/07/23 10:04:35;;;;;;;1.10;0.90;;;26.60;45.90;;;33.86;26.73;101819.81;5115009;28;20644;-61
2022/07/23 10:07:07;;;;;;;1.37;0.80;;;27.20;43.80;;;34.14;25.77;101810.50;5114678;28;20275;-60
2022/07/23 10:09:38;;;;;;;1.00;1.00;;;27.70;41.60;;;35.02;24.55;101814.50;5113356;28;20668;-61
2022/07/23 10:14:43;;;;;;;2.80;1.30;;;28.60;39.70;;;34.77;25.06;101812.41;5115066;28;20191;-59
2022/07/23 10:17:11;;;;;;;1.03;0.90;;;28.90;38.70;;;34.22;25.04;101820.75;5114694;28;20195;-59
2022/07/23 10:19:38;;;;;;;0.60;0.60;;;28.90;37.60;;;33.36;25.28;101810.66;5114464;28;20203;-59
2022/07/23 10:22:11;;;;;;;1.07;0.90;;;28.80;36.80;;;32.58;26.25;101821.47;5114268;28;20230;-61
2022/07/23 10:24:53;;;;;;;1.90;1.20;;;28.50;37.10;;;31.85;27.59;101819.09;5113194;28;20202;-61